Time;durP1;ratioP1;P1;durP2;ratioP2;P2;SDS_P1;SDS_P2;PMS_P1;PMS_P2;Temp;Humidity;BMP_temperature;BMP_pressure;BME280_temperature;BME280_humidity;BME280_pressure;Samples;Min_cycle;Max_cycle;Signal;HPM_P1;HPM_P2
2022/05/05 00:00:46;;;;;;;4.78;2.70;;;4.40;99.90;;;;;;4771301;30;20057;-86
2022/05/05 00:03:12;;;;;;;4.18;2.50;;;5.30;99.90;;;;;;4787181;30;20105;-86
2022/05/05 00:05:37;;;;;;;4.15;2.70;;;6.10;99.90;;;;;;4771238;30;20051;-87
2022/05/05 00:08:03;;;;;;;7.57;2.85;;;5.90;99.90;;;;;;4771056;30;20086;-86
2022/05/05 00:15:57;;;;;;;7.07;2.88;;;6.50;99.90;;;;;;4786911;30;20070;-86
2022/05/05 00:18:23;;;;;;;4.53;2.50;;;6.30;99.90;;;;;;4786792;30;20054;-86
2022/05/05 00:20:49;;;;;;;6.80;2.72;;;5.90;99.90;;;;;;4787235;30;20093;-86
2022/05/05 00:23:14;;;;;;;6.32;2.58;;;5.50;99.90;;;;;;4786719;30;20051;-86
2022/05/05 00:25:40;;;;;;;8.38;3.53;;;4.90;99.90;;;;;;4770584;30;20063;-87
2022/05/05 00:28:06;;;;;;;7.05;3.40;;;5.50;99.90;;;;;;4770885;30;20068;-86
2022/05/05 00:30:32;;;;;;;7.60;3.30;;;5.50;99.90;;;;;;4770608;30;20459;-86
2022/05/05 00:32:57;;;;;;;4.55;2.97;;;6.30;99.90;;;;;;4770946;30;20055;-87
2022/05/05 00:35:23;;;;;;;6.68;2.90;;;5.50;99.90;;;;;;4770593;30;20150;-86
2022/05/05 00:37:49;;;;;;;4.25;2.30;;;6.10;99.90;;;;;;4786592;30;20064;-87
2022/05/05 00:40:14;;;;;;;6.50;3.25;;;5.70;99.90;;;;;;4786696;30;20533;-87
2022/05/05 00:42:40;;;;;;;5.95;3.35;;;5.50;99.90;;;;;;4770581;30;20475;-87
2022/05/05 00:45:07;;;;;;;6.18;3.20;;;5.90;99.90;;;;;;4786475;30;20085;-88
2022/05/05 00:47:32;;;;;;;6.38;3.08;;;5.50;99.90;;;;;;4770482;30;20059;-87
2022/05/05 00:50:01;;;;;;;7.32;2.80;;;5.50;99.90;;;;;;4786609;30;20089;-88
2022/05/05 00:52:27;;;;;;;4.45;2.20;;;5.50;99.90;;;;;;4786831;29;20065;-87
2022/05/05 00:54:55;;;;;;;5.85;2.78;;;5.60;99.90;;;;;;4786364;30;20120;-87
2022/05/05 00:57:21;;;;;;;4.28;2.42;;;6.10;99.90;;;;;;4771782;30;20087;-86
2022/05/05 00:59:48;;;;;;;6.30;2.65;;;6.00;99.90;;;;;;4774352;30;20063;-87
2022/05/05 01:02:16;;;;;;;4.95;2.78;;;5.10;99.90;;;;;;4774070;30;20405;-86
2022/05/05 01:04:42;;;;;;;5.95;2.80;;;6.20;99.90;;;;;;4774223;30;20499;-86
2022/05/05 01:07:08;;;;;;;5.32;2.55;;;6.20;99.90;;;;;;4773917;30;20106;-87
2022/05/05 01:09:35;;;;;;;5.45;2.85;;;6.10;99.90;;;;;;4790179;29;20062;-86
2022/05/05 01:12:02;;;;;;;5.45;3.05;;;5.60;99.90;;;;;;4774117;30;20056;-86
2022/05/05 01:14:30;;;;;;;6.03;2.60;;;6.00;99.90;;;;;;4775711;30;20110;-87
2022/05/05 01:16:58;;;;;;;4.78;2.17;;;6.50;99.90;;;;;;4775962;30;20426;-87
2022/05/05 01:19:24;;;;;;;4.30;2.30;;;4.60;99.90;;;;;;4791083;30;20047;-89
2022/05/05 01:21:59;;;;;;;4.93;2.53;;;6.00;99.90;;;;;;4775181;30;20425;-86
2022/05/05 01:29:54;;;;;;;3.58;2.25;;;6.20;99.90;;;;;;4773620;30;20094;-87
2022/05/05 01:32:20;;;;;;;3.83;2.00;;;5.90;99.90;;;;;;4789814;29;20136;-88
2022/05/05 01:34:46;;;;;;;5.28;2.20;;;6.60;99.90;;;;;;4790096;30;20059;-88
2022/05/05 01:37:11;;;;;;;5.53;2.00;;;5.40;99.90;;;;;;4788963;30;20120;-86
2022/05/05 01:39:37;;;;;;;4.05;2.08;;;5.70;99.90;;;;;;4789697;30;20053;-88
2022/05/05 01:42:03;;;;;;;4.72;2.17;;;6.40;99.90;;;;;;4790065;30;20405;-86
2022/05/05 01:44:29;;;;;;;4.28;2.00;;;5.80;99.90;;;;;;4791090;30;20051;-86
2022/05/05 01:46:54;;;;;;;4.30;1.80;;;6.40;99.90;;;;;;4783697;30;20469;-87
2022/05/05 01:49:20;;;;;;;3.80;1.88;;;6.50;99.90;;;;;;4790799;29;20072;-86
2022/05/05 01:51:46;;;;;;;5.20;1.85;;;6.40;99.90;;;;;;4773389;30;20414;-88
2022/05/05 01:54:12;;;;;;;4.55;2.45;;;6.20;99.90;;;;;;4789546;30;20057;-86
2022/05/05 01:56:37;;;;;;;3.72;2.08;;;6.90;99.90;;;;;;4788963;30;20047;-86
2022/05/05 01:59:03;;;;;;;5.15;2.08;;;5.90;99.90;;;;;;4773047;30;20059;-87
2022/05/05 02:01:29;;;;;;;3.33;2.22;;;5.90;99.90;;;;;;4789486;30;20058;-86
2022/05/05 02:03:54;;;;;;;3.47;2.13;;;6.50;99.90;;;;;;4772871;30;20117;-87
2022/05/05 02:06:20;;;;;;;2.85;2.28;;;6.50;99.90;;;;;;4789377;30;20134;-86
2022/05/05 02:08:46;;;;;;;4.85;2.10;;;5.30;99.90;;;;;;4788307;29;20051;-86
2022/05/05 02:11:11;;;;;;;4.38;2.30;;;5.90;99.90;;;;;;4772656;30;20094;-87
2022/05/05 02:13:37;;;;;;;3.63;2.03;;;6.70;99.90;;;;;;4772922;30;20055;-87
2022/05/05 02:16:04;;;;;;;5.07;2.30;;;5.90;99.90;;;;;;4772746;30;20138;-86
2022/05/05 02:18:31;;;;;;;4.53;1.77;;;5.90;99.90;;;;;;4772991;30;20393;-86
2022/05/05 02:20:57;;;;;;;4.65;2.00;;;6.70;99.90;;;;;;4772963;30;20059;-91
2022/05/05 02:23:23;;;;;;;3.67;2.03;;;6.50;99.90;;;;;;4789137;30;20054;-89
2022/05/05 02:25:48;;;;;;;4.65;1.98;;;6.90;99.90;;;;;;4789006;30;20055;-87
2022/05/05 02:28:14;;;;;;;6.28;2.17;;;6.30;99.90;;;;;;4788652;30;20245;-85
2022/05/05 02:30:40;;;;;;;5.05;2.28;;;6.50;99.90;;;;;;4788776;30;20110;-86
2022/05/05 02:33:06;;;;;;;4.13;2.20;;;6.50;99.90;;;;;;4788642;30;20091;-87
2022/05/05 02:35:32;;;;;;;5.38;2.05;;;6.10;99.90;;;;;;4772993;30;20138;-86
2022/05/05 02:40:42;;;;;;;5.22;2.70;;;6.40;99.90;;;;;;4767315;30;20586;-86
2022/05/05 02:43:08;;;;;;;3.45;2.28;;;5.80;99.90;;;;;;4772689;30;20059;-87
2022/05/05 02:45:34;;;;;;;4.20;2.15;;;6.60;99.90;;;;;;4788242;30;20520;-86
2022/05/05 02:48:00;;;;;;;4.00;2.17;;;5.80;99.90;;;;;;4788510;30;20063;-87
2022/05/05 02:50:26;;;;;;;3.53;1.95;;;6.30;99.90;;;;;;4772040;30;20089;-86
2022/05/05 02:52:55;;;;;;;5.63;2.20;;;6.10;99.90;;;;;;4788120;29;20059;-86
2022/05/05 02:55:22;;;;;;;3.97;2.35;;;5.80;99.90;;;;;;4771806;30;20063;-85
2022/05/05 02:57:48;;;;;;;4.57;2.50;;;5.80;99.90;;;;;;4772247;30;20059;-86
2022/05/05 03:00:14;;;;;;;7.25;2.83;;;5.80;99.90;;;;;;4771927;30;20063;-86
2022/05/05 03:02:41;;;;;;;3.92;2.03;;;5.80;99.90;;;;;;4788169;30;20058;-88
2022/05/05 03:05:09;;;;;;;5.55;2.03;;;4.90;99.90;;;;;;4772192;30;20552;-88
2022/05/05 03:07:35;;;;;;;4.28;2.00;;;5.80;99.90;;;;;;4788299;30;20059;-87
2022/05/05 03:10:01;;;;;;;3.22;1.77;;;5.90;99.90;;;;;;4771859;30;20076;-86
2022/05/05 03:12:27;;;;;;;5.53;2.60;;;5.80;99.90;;;;;;4771958;30;20098;-87
2022/05/05 03:14:53;;;;;;;3.60;2.10;;;5.90;99.90;;;;;;4772130;30;20540;-86
2022/05/05 03:17:19;;;;;;;5.47;1.75;;;5.90;99.90;;;;;;4787824;30;20062;-86
2022/05/05 03:19:45;;;;;;;4.32;2.08;;;6.40;99.90;;;;;;4772016;30;20051;-88
2022/05/05 03:22:11;;;;;;;6.88;2.22;;;6.70;99.90;;;;;;4788035;30;20124;-87
2022/05/05 03:24:36;;;;;;;4.20;2.03;;;6.90;99.90;;;;;;4787777;30;20055;-86
2022/05/05 03:27:04;;;;;;;5.47;2.67;;;5.70;99.90;;;;;;4787424;30;20057;-87
2022/05/05 03:29:30;;;;;;;3.38;2.17;;;5.90;99.90;;;;;;4788160;30;20112;-88
2022/05/05 03:31:56;;;;;;;3.75;2.40;;;6.10;99.90;;;;;;4788081;30;20123;-87
2022/05/05 03:34:22;;;;;;;5.90;2.60;;;5.90;99.90;;;;;;4787946;30;20067;-87
2022/05/05 03:36:47;;;;;;;4.22;1.60;;;6.60;99.90;;;;;;4788162;30;20047;-89
2022/05/05 03:39:13;;;;;;;4.15;1.92;;;6.30;99.90;;;;;;4785006;30;20059;-88
2022/05/05 03:41:39;;;;;;;3.53;2.10;;;6.00;99.90;;;;;;4788866;30;20051;-88
2022/05/05 03:44:07;;;;;;;3.05;1.67;;;6.70;99.90;;;;;;4771393;30;20051;-88
2022/05/05 03:46:34;;;;;;;4.05;1.67;;;6.10;99.90;;;;;;4787237;30;20059;-88
2022/05/05 03:49:00;;;;;;;2.35;1.67;;;6.10;99.90;;;;;;4771970;30;20463;-88
2022/05/05 03:51:26;;;;;;;4.25;1.55;;;6.10;99.90;;;;;;4787722;29;20051;-88
2022/05/05 03:53:52;;;;;;;5.13;1.95;;;7.10;99.90;;;;;;4787130;30;20071;-85
2022/05/05 03:56:18;;;;;;;3.33;2.00;;;6.40;99.90;;;;;;4770992;30;20063;-87
2022/05/05 03:58:44;;;;;;;2.47;1.50;;;6.60;99.90;;;;;;4787414;30;20456;-86
2022/05/05 04:01:09;;;;;;;4.07;2.22;;;6.50;99.90;;;;;;4786875;30;20047;-87
2022/05/05 04:03:41;;;;;;;3.65;1.80;;;7.30;99.90;;;;;;4770926;30;20051;-87
2022/05/05 04:06:07;;;;;;;7.05;2.33;;;7.10;99.90;;;;;;4786058;30;20597;-90
2022/05/05 04:08:34;;;;;;;3.47;2.10;;;6.30;99.90;;;;;;4770968;30;20055;-88
2022/05/05 04:11:00;;;;;;;3.45;1.98;;;6.30;99.90;;;;;;4786907;30;20075;-88
2022/05/05 04:13:26;;;;;;;3.05;1.92;;;6.30;99.90;;;;;;4771068;30;20082;-86
2022/05/05 04:15:52;;;;;;;2.65;1.58;;;7.30;99.90;;;;;;4770847;30;20109;-87
2022/05/05 04:18:18;;;;;;;5.18;2.45;;;6.60;99.90;;;;;;4771338;30;20055;-89
2022/05/05 04:20:44;;;;;;;4.47;2.65;;;7.20;99.90;;;;;;4771109;30;20132;-90
2022/05/05 04:23:10;;;;;;;3.60;2.35;;;6.40;99.90;;;;;;4786595;30;20055;-88
2022/05/05 04:25:47;;;;;;;4.82;2.35;;;6.40;99.90;;;;;;4787034;30;20421;-87
2022/05/05 04:28:13;;;;;;;7.03;2.75;;;6.50;99.90;;;;;;4770837;30;20096;-90
2022/05/05 04:30:40;;;;;;;5.03;2.00;;;6.50;99.90;;;;;;4786763;30;20520;-87
2022/05/05 04:33:07;;;;;;;4.35;2.22;;;6.50;99.90;;;;;;4773470;30;20063;-88
2022/05/05 04:35:35;;;;;;;4.57;2.22;;;7.00;99.90;;;;;;4774816;30;20138;-87
2022/05/05 04:38:00;;;;;;;4.57;2.17;;;6.80;99.90;;;;;;4790376;30;20066;-90
2022/05/05 04:40:26;;;;;;;5.15;1.98;;;7.40;99.90;;;;;;4774394;30;20043;-88
2022/05/05 04:42:52;;;;;;;3.13;1.63;;;6.90;99.90;;;;;;4790782;30;20055;-87
2022/05/05 04:45:17;;;;;;;3.05;1.90;;;7.60;99.90;;;;;;4790482;30;20110;-89
2022/05/05 04:47:43;;;;;;;5.10;3.30;;;6.60;99.90;;;;;;4759364;30;20059;-87
2022/05/05 04:50:09;;;;;;;3.42;1.77;;;6.60;99.90;;;;;;4790144;30;20051;-89
2022/05/05 04:52:35;;;;;;;3.28;1.80;;;6.70;99.90;;;;;;4789862;29;20051;-87
2022/05/05 04:55:04;;;;;;;3.60;2.00;;;6.90;99.90;;;;;;4774237;30;20066;-88
2022/05/05 04:57:29;;;;;;;4.32;2.00;;;6.70;99.90;;;;;;4783523;30;20058;-89
2022/05/05 04:59:55;;;;;;;2.63;1.58;;;7.30;99.90;;;;;;4790651;30;20059;-87
2022/05/05 05:02:21;;;;;;;4.35;1.90;;;7.60;99.90;;;;;;4773846;30;20462;-88
2022/05/05 05:04:47;;;;;;;4.03;1.80;;;7.50;99.90;;;;;;4790158;30;20051;-87
2022/05/05 05:07:13;;;;;;;6.00;2.10;;;6.80;99.90;;;;;;4774181;30;20062;-86
2022/05/05 05:09:39;;;;;;;3.60;2.15;;;7.40;99.90;;;;;;4789985;30;20486;-87
2022/05/05 05:12:05;;;;;;;4.05;1.40;;;7.60;99.90;;;;;;4790102;30;20142;-86
2022/05/05 05:14:30;;;;;;;1.98;1.58;;;6.90;99.90;;;;;;4773610;30;20059;-88
2022/05/05 05:16:56;;;;;;;7.50;1.88;;;7.00;99.90;;;;;;4790194;30;20062;-87
2022/05/05 05:19:22;;;;;;;3.60;1.92;;;6.60;99.90;;;;;;4773393;30;20087;-91
2022/05/05 05:21:48;;;;;;;2.78;1.67;;;8.00;99.90;;;;;;4773937;30;20069;-85
2022/05/05 05:24:13;;;;;;;2.97;1.60;;;7.10;99.90;;;;;;4789535;30;20394;-85
2022/05/05 05:26:40;;;;;;;2.20;1.55;;;8.00;99.90;;;;;;4773870;30;20482;-86
2022/05/05 05:29:05;;;;;;;4.25;1.70;;;7.70;99.90;;;;;;4789920;30;20512;-85
2022/05/05 05:31:31;;;;;;;2.70;1.63;;;7.30;99.90;;;;;;4789769;30;20063;-86
2022/05/05 05:33:57;;;;;;;2.70;1.60;;;7.30;99.90;;;;;;4789372;30;20548;-86
2022/05/05 05:36:23;;;;;;;4.85;1.80;;;7.40;99.90;;;;;;4773947;30;20058;-85
2022/05/05 05:38:49;;;;;;;7.85;2.35;;;7.40;99.90;;;;;;4790019;30;20062;-85
2022/05/05 05:41:14;;;;;;;4.40;1.70;;;8.40;99.90;;;;;;4789329;30;20147;-86
2022/05/05 05:43:40;;;;;;;7.90;2.28;;;7.50;99.90;;;;;;4766568;30;20471;-86
2022/05/05 05:46:06;;;;;;;4.25;2.15;;;7.60;99.90;;;;;;4789843;30;20558;-85
2022/05/05 05:48:32;;;;;;;6.20;2.97;;;7.60;99.90;;;;;;4774125;30;20473;-85
2022/05/05 05:50:58;;;;;;;3.42;2.00;;;7.90;99.90;;;;;;4790639;30;20075;-85
2022/05/05 05:53:23;;;;;;;3.60;1.50;;;7.80;99.90;;;;;;4789984;29;20146;-85
2022/05/05 05:55:49;;;;;;;3.67;1.92;;;7.80;99.90;;;;;;4789277;30;20445;-85
2022/05/05 05:58:15;;;;;;;5.53;2.00;;;8.10;99.90;;;;;;4789353;30;20051;-85
2022/05/05 06:00:40;;;;;;;4.25;1.77;;;8.30;99.90;;;;;;4790581;30;20094;-87
2022/05/05 06:05:51;;;;;;;3.20;1.77;;;8.80;99.90;;;;;;4791491;30;20056;-92
2022/05/05 06:08:17;;;;;;;3.75;2.15;;;9.00;99.90;;;;;;4790591;30;20413;-85
2022/05/05 06:10:53;;;;;;;4.00;2.13;;;8.80;99.90;;;;;;4789025;30;20417;-92
2022/05/05 06:13:19;;;;;;;6.30;1.88;;;8.20;99.90;;;;;;4770974;30;20074;-86
2022/05/05 06:15:44;;;;;;;2.22;1.42;;;8.90;99.90;;;;;;4772586;30;20067;-87
2022/05/05 06:18:10;;;;;;;2.88;1.52;;;8.40;99.90;;;;;;4789304;30;20055;-85
2022/05/05 06:20:36;;;;;;;3.83;1.67;;;8.40;99.90;;;;;;4772230;30;20120;-87
2022/05/05 06:23:01;;;;;;;2.30;1.48;;;8.50;99.90;;;;;;4772791;30;20413;-86
2022/05/05 06:25:27;;;;;;;3.17;1.88;;;8.60;99.90;;;;;;4772768;30;20159;-90
2022/05/05 06:27:56;;;;;;;5.15;1.73;;;8.70;99.90;;;;;;4787996;30;20055;-87
2022/05/05 06:30:21;;;;;;;3.25;1.80;;;9.00;99.90;;;;;;4772847;30;20130;-88
2022/05/05 06:32:47;;;;;;;2.92;1.65;;;8.80;99.90;;;;;;4773068;30;20150;-87
2022/05/05 06:35:13;;;;;;;5.03;2.33;;;9.30;99.90;;;;;;4788627;30;20047;-86
2022/05/05 06:37:39;;;;;;;2.50;1.50;;;9.00;99.90;;;;;;4772781;30;20057;-88
2022/05/05 06:40:06;;;;;;;2.42;1.42;;;9.10;99.90;;;;;;4788584;29;20089;-87
2022/05/05 06:42:32;;;;;;;3.53;1.40;;;9.10;99.90;;;;;;4772306;30;20127;-86
2022/05/05 06:44:59;;;;;;;2.13;1.17;;;9.70;99.90;;;;;;4757237;30;20138;-87
2022/05/05 06:47:25;;;;;;;2.30;1.40;;;9.50;99.90;;;;;;4772059;30;20558;-87
2022/05/05 06:49:51;;;;;;;2.72;1.23;;;9.40;99.90;;;;;;4772012;30;20051;-87
2022/05/05 06:52:17;;;;;;;2.83;1.13;;;9.90;99.90;;;;;;4788387;29;20124;-89
2022/05/05 06:54:42;;;;;;;3.17;1.50;;;9.60;99.90;;;;;;4771671;30;20055;-87
2022/05/05 06:57:09;;;;;;;4.57;1.60;;;9.50;99.90;;;;;;4788403;30;20050;-88
2022/05/05 06:59:35;;;;;;;4.38;1.48;;;9.70;99.90;;;;;;4788510;30;20087;-89
2022/05/05 07:02:03;;;;;;;2.78;1.83;;;9.70;99.90;;;;;;4771744;30;20095;-88
2022/05/05 07:07:21;;;;;;;3.05;1.55;;;9.90;99.90;;;;;;4771743;30;20138;-86
2022/05/05 07:12:32;;;;;;;4.57;2.33;;;10.10;99.90;;;;;;4772101;30;20119;-88
2022/05/05 07:14:58;;;;;;;4.50;1.80;;;10.20;99.90;;;;;;4771588;30;20063;-87
2022/05/05 07:17:24;;;;;;;2.08;1.35;;;10.40;99.90;;;;;;4771873;30;20066;-87
2022/05/05 07:19:50;;;;;;;4.05;1.50;;;10.40;99.90;;;;;;4771451;30;20066;-88
2022/05/05 07:22:16;;;;;;;5.90;2.72;;;10.50;99.90;;;;;;4788356;30;20051;-88
2022/05/05 07:24:43;;;;;;;4.05;2.38;;;10.60;99.90;;;;;;4772348;30;20051;-90
2022/05/05 07:27:13;;;;;;;3.42;2.00;;;10.70;99.90;;;;;;4768829;30;20130;-88
2022/05/05 07:29:42;;;;;;;4.47;2.05;;;11.00;99.90;;;;;;4770953;30;20108;-85
2022/05/05 07:32:09;;;;;;;6.13;2.15;;;11.30;99.90;;;;;;4787560;30;20055;-87
2022/05/05 07:34:35;;;;;;;3.35;1.70;;;10.90;99.90;;;;;;4771366;30;20397;-86
2022/05/05 07:37:02;;;;;;;4.72;2.53;;;11.00;99.90;;;;;;4771452;30;20142;-84
2022/05/05 07:39:28;;;;;;;4.32;1.90;;;11.10;99.90;;;;;;4771941;29;20055;-84
2022/05/05 07:41:54;;;;;;;6.13;2.22;;;11.20;99.90;;;;;;4771475;30;20059;-85
2022/05/05 07:44:19;;;;;;;5.35;1.73;;;11.60;99.90;;;;;;4756606;30;20062;-85
2022/05/05 07:46:45;;;;;;;2.30;1.27;;;11.50;99.90;;;;;;4771936;30;20063;-86
2022/05/05 07:49:11;;;;;;;7.15;2.00;;;11.50;99.90;;;;;;4771399;30;20063;-86
2022/05/05 07:51:37;;;;;;;2.75;1.40;;;12.10;99.90;;;;;;4787509;29;20219;-87
2022/05/05 07:57:02;;;;;;;5.03;2.20;;;11.70;99.90;;;;;;4767273;30;20063;-87
2022/05/05 07:59:28;;;;;;;5.93;2.10;;;12.00;99.90;;;;;;4752523;30;20059;-87
2022/05/05 08:01:53;;;;;;;2.95;1.58;;;12.20;99.90;;;;;;4752701;30;20060;-86
2022/05/05 08:04:19;;;;;;;4.15;2.05;;;12.30;99.90;;;;;;4767190;30;20165;-85
2022/05/05 08:06:45;;;;;;;5.47;1.63;;;12.30;99.90;;;;;;4752026;30;20064;-84
2022/05/05 08:09:11;;;;;;;3.38;1.77;;;12.50;99.90;;;;;;4752601;30;20121;-85
2022/05/05 08:11:37;;;;;;;3.53;1.40;;;12.50;99.90;;;;;;4767262;30;20123;-85
2022/05/05 08:14:04;;;;;;;3.03;1.63;;;12.60;99.90;;;;;;4767146;30;20063;-85
2022/05/05 08:16:30;;;;;;;4.05;1.30;;;12.80;99.90;;;;;;4766161;30;20096;-85
2022/05/05 08:18:56;;;;;;;4.60;1.23;;;12.80;99.90;;;;;;4767228;30;20583;-86
2022/05/05 08:21:22;;;;;;;5.63;1.58;;;13.00;99.90;;;;;;4752680;30;20067;-85
2022/05/05 08:23:47;;;;;;;3.22;1.40;;;13.00;99.90;;;;;;4767288;30;20063;-86
2022/05/05 08:28:58;;;;;;;2.60;1.33;;;13.10;99.90;;;;;;4754858;30;20103;-86
2022/05/05 08:31:24;;;;;;;4.97;1.45;;;13.30;99.90;;;;;;4756502;30;20604;-86
2022/05/05 08:33:50;;;;;;;5.03;1.60;;;13.30;99.90;;;;;;4771126;30;20134;-86
2022/05/05 08:36:18;;;;;;;3.58;1.27;;;13.50;99.90;;;;;;4788215;30;20106;-88
2022/05/05 08:38:46;;;;;;;3.15;1.40;;;13.60;99.90;;;;;;4756485;30;20402;-87
2022/05/05 08:41:14;;;;;;;4.68;1.48;;;13.70;99.90;;;;;;4786945;30;20424;-89
2022/05/05 08:43:41;;;;;;;1.38;1.00;;;14.00;99.90;;;;;;4771169;30;20059;-89
2022/05/05 08:46:12;;;;;;;4.78;1.33;;;14.10;99.90;;;;;;4786723;30;20052;-88
2022/05/05 08:48:38;;;;;;;4.68;1.27;;;14.30;99.90;;;;;;4779897;30;20142;-87
2022/05/05 08:51:04;;;;;;;3.30;1.15;;;14.40;99.90;;;;;;4771153;30;20054;-90
2022/05/05 08:53:35;;;;;;;6.82;1.13;;;14.60;99.90;;;;;;4767802;30;20067;-89
2022/05/05 08:56:02;;;;;;;2.65;0.90;;;14.70;99.90;;;;;;4768932;30;20142;-88
2022/05/05 08:58:29;;;;;;;2.47;1.02;;;14.90;99.90;;;;;;4768899;30;20145;-88
2022/05/05 09:00:55;;;;;;;4.85;1.02;;;15.00;99.90;;;;;;4768986;30;20044;-85
2022/05/05 09:03:21;;;;;;;3.00;0.98;;;15.10;99.90;;;;;;4769023;30;20460;-85
2022/05/05 09:05:50;;;;;;;2.45;1.25;;;15.50;99.90;;;;;;4767369;30;20066;-87
2022/05/05 09:08:26;;;;;;;2.05;0.90;;;15.30;99.90;;;;;;4768032;30;20056;-88
2022/05/05 09:10:57;;;;;;;3.97;0.88;;;15.50;99.90;;;;;;4768628;30;20656;-84
2022/05/05 09:13:43;;;;;;;3.85;1.30;;;15.60;99.90;;;;;;4768820;30;20434;-86
2022/05/05 09:16:10;;;;;;;;;;;15.80;99.90;;;;;;4767999;30;20417;-86
2022/05/05 09:18:37;;;;;;;3.45;1.45;;;16.00;99.90;;;;;;4770596;30;20363;-85
2022/05/05 09:21:05;;;;;;;1.38;0.80;;;16.30;99.90;;;;;;4771872;30;20529;-87
2022/05/05 09:24:34;;;;;;;2.50;1.00;;;16.30;99.90;;;;;;4771193;30;20510;-90
2022/05/05 09:26:30;;;;;;;2.00;1.00;;;16.50;99.90;;;;;;4771264;30;20091;-90
2022/05/05 09:29:24;;;;;;;2.78;1.20;;;16.60;99.90;;;;;;4781216;30;20052;-91
2022/05/05 09:31:50;;;;;;;2.20;1.08;;;16.70;99.90;;;;;;4770737;30;20083;-89
2022/05/05 09:34:19;;;;;;;3.55;1.13;;;16.90;99.90;;;;;;4756269;30;20140;-90
2022/05/05 09:36:47;;;;;;;3.42;1.30;;;16.90;99.90;;;;;;4771729;30;20134;-88
2022/05/05 09:39:13;;;;;;;3.97;1.30;;;17.00;99.90;;;;;;4772879;30;20048;-91
2022/05/05 09:41:46;;;;;;;3.67;1.60;;;17.20;99.90;;;;;;4772842;30;20123;-89
2022/05/05 09:44:20;;;;;;;2.53;1.00;;;17.30;99.90;;;;;;4774609;30;20122;-86
2022/05/05 09:46:46;;;;;;;4.72;2.03;;;17.40;99.80;;;;;;4772261;30;20143;-88
2022/05/05 09:49:17;;;;;;;3.92;1.70;;;17.30;99.80;;;;;;4770834;30;20213;-88
2022/05/05 09:57:43;;;;;;;4.25;1.30;;;17.50;98.50;;;;;;4772699;30;20113;-91
2022/05/05 10:05:57;;;;;;;3.03;1.67;;;18.10;99.90;;;;;;4724018;30;20396;-88
2022/05/05 10:08:53;;;;;;;6.07;2.22;;;18.20;99.90;;;;;;4717822;30;20076;-88
2022/05/05 10:11:21;;;;;;;4.22;1.95;;;18.40;99.60;;;;;;4682137;30;20074;-92
2022/05/05 10:13:47;;;;;;;4.68;2.10;;;18.50;99.90;;;;;;4683386;30;20120;-94
2022/05/05 10:16:16;;;;;;;5.65;1.77;;;18.50;97.60;;;;;;4668190;30;20066;-91
2022/05/05 10:18:42;;;;;;;5.05;1.90;;;18.50;99.10;;;;;;4681771;30;20584;-91
2022/05/05 10:21:46;;;;;;;3.25;1.70;;;18.60;98.60;;;;;;4668213;30;20058;-92
2022/05/05 10:24:16;;;;;;;3.97;1.95;;;18.70;97.10;;;;;;4682775;30;20416;-94
2022/05/05 10:26:48;;;;;;;4.32;2.10;;;18.80;98.80;;;;;;4682418;30;20054;-92
2022/05/05 10:29:32;;;;;;;5.43;2.20;;;18.70;97.90;;;;;;4667395;30;20053;-93
2022/05/05 10:32:07;;;;;;;3.40;1.58;;;18.80;95.50;;;;;;4669436;30;20149;-90
2022/05/05 10:34:34;;;;;;;2.50;1.50;;;18.90;97.50;;;;;;4683750;30;20093;-91
2022/05/05 10:37:04;;;;;;;3.75;1.83;;;18.90;97.20;;;;;;4685189;30;20101;-91
2022/05/05 10:39:45;;;;;;;2.63;1.67;;;19.00;95.10;;;;;;4716208;30;20094;-91
2022/05/05 10:42:21;;;;;;;4.32;1.60;;;19.10;98.30;;;;;;4729865;30;20060;-91
2022/05/05 10:45:24;;;;;;;3.88;1.70;;;19.20;99.10;;;;;;4738518;30;20690;-93
2022/05/05 10:47:57;;;;;;;4.07;2.08;;;19.20;97.00;;;;;;4756565;30;20056;-90
2022/05/05 10:50:56;;;;;;;2.72;1.38;;;19.30;98.00;;;;;;4770707;30;20048;-94
2022/05/05 10:53:39;;;;;;;3.05;1.70;;;19.60;97.80;;;;;;4771826;30;20059;-94
2022/05/05 10:56:29;;;;;;;6.50;2.53;;;19.90;98.50;;;;;;4770208;30;20095;-86
2022/05/05 10:59:02;;;;;;;7.07;2.10;;;20.10;94.80;;;;;;4756733;30;20062;-90
2022/05/05 11:01:41;;;;;;;4.80;2.60;;;19.90;93.60;;;;;;4770898;30;20137;-92
2022/05/05 11:04:24;;;;;;;4.22;1.55;;;20.30;93.80;;;;;;4755672;30;20048;-94
2022/05/05 11:07:30;;;;;;;5.22;2.22;;;20.20;94.30;;;;;;4757744;30;20115;-89
2022/05/05 11:09:57;;;;;;;6.53;2.22;;;20.20;94.70;;;;;;4765672;30;20060;-94
2022/05/05 11:12:32;;;;;;;2.72;1.65;;;20.50;93.60;;;;;;4756810;30;20064;-95
2022/05/05 11:23:25;;;;;;;2.80;2.00;;;20.60;94.90;;;;;;4768100;30;20530;-90
2022/05/05 11:25:52;;;;;;;4.93;2.10;;;20.80;94.90;;;;;;4753305;30;20067;-84
2022/05/05 11:28:19;;;;;;;4.97;2.22;;;20.90;95.60;;;;;;4768326;30;20067;-86
2022/05/05 11:30:45;;;;;;;4.03;2.20;;;20.90;93.20;;;;;;4769661;30;20513;-87
2022/05/05 11:33:11;;;;;;;2.92;1.75;;;20.60;92.60;;;;;;4769909;30;20060;-85
2022/05/05 11:35:37;;;;;;;4.60;2.05;;;20.70;95.20;;;;;;4770233;30;20055;-85
2022/05/05 11:38:09;;;;;;;3.47;2.05;;;20.70;94.00;;;;;;4770274;30;20086;-86
2022/05/05 11:40:36;;;;;;;4.68;2.42;;;20.80;95.00;;;;;;4769938;30;20060;-86
2022/05/05 11:45:53;;;;;;;4.65;2.10;;;20.90;94.90;;;;;;4770179;30;20062;-85
2022/05/05 11:48:20;;;;;;;4.75;2.97;;;20.90;95.10;;;;;;4769974;30;20087;-86
2022/05/05 11:50:45;;;;;;;5.70;2.33;;;21.40;93.80;;;;;;4769980;30;20418;-87
2022/05/05 11:53:17;;;;;;;6.03;2.08;;;21.40;90.50;;;;;;4780419;29;20070;-85
2022/05/05 11:55:44;;;;;;;3.28;1.83;;;21.10;91.70;;;;;;4771926;30;20517;-86
2022/05/05 12:01:36;;;;;;;6.32;2.13;;;20.70;93.90;;;;;;4787957;30;20260;-85
2022/05/05 12:03:58;;;;;;;5.45;2.13;;;21.20;93.30;;;;;;4787547;30;20048;-83
2022/05/05 12:06:25;;;;;;;3.92;2.25;;;21.40;94.80;;;;;;4787645;29;20057;-83
2022/05/05 12:08:51;;;;;;;4.15;2.38;;;21.30;92.50;;;;;;4771929;30;20062;-82
2022/05/05 12:11:16;;;;;;;4.63;2.33;;;21.20;92.20;;;;;;4787588;30;20116;-83
2022/05/05 12:13:42;;;;;;;4.90;2.30;;;21.40;91.90;;;;;;4771460;30;20059;-83
2022/05/05 12:16:10;;;;;;;4.97;1.90;;;21.30;94.40;;;;;;4787604;30;20051;-84
2022/05/05 12:18:54;;;;;;;5.97;2.38;;;21.30;94.20;;;;;;4787525;30;20059;-84
2022/05/05 12:21:21;;;;;;;6.60;2.35;;;21.20;93.20;;;;;;4787591;30;20059;-84
2022/05/05 12:24:02;;;;;;;3.50;2.00;;;21.10;92.80;;;;;;4771615;30;20113;-83
2022/05/05 12:26:29;;;;;;;5.05;2.47;;;21.10;91.30;;;;;;4771484;30;20059;-82
2022/05/05 12:28:56;;;;;;;6.22;2.58;;;21.00;92.90;;;;;;4787339;30;20096;-82
2022/05/05 12:31:23;;;;;;;4.63;2.22;;;20.80;92.00;;;;;;4771255;30;20067;-83
2022/05/05 12:33:49;;;;;;;5.35;2.67;;;21.00;94.10;;;;;;4787065;29;20097;-83
2022/05/05 12:36:16;;;;;;;4.75;2.85;;;21.40;92.70;;;;;;4787340;30;20557;-83
2022/05/05 12:38:42;;;;;;;5.45;2.40;;;21.40;92.20;;;;;;4787410;30;20055;-83
2022/05/05 12:41:08;;;;;;;6.90;3.75;;;21.70;92.50;;;;;;4787217;30;20048;-82
2022/05/05 12:43:34;;;;;;;3.80;1.88;;;21.90;90.10;;;;;;4787234;30;20163;-84
2022/05/05 12:46:04;;;;;;;5.57;2.60;;;21.70;93.30;;;;;;4787382;30;20063;-83
2022/05/05 12:48:31;;;;;;;5.60;2.40;;;21.80;91.60;;;;;;4787321;30;20126;-83
2022/05/05 12:50:57;;;;;;;4.22;1.75;;;21.80;90.50;;;;;;4771122;30;20057;-83
2022/05/05 13:01:41;;;;;;;2.78;1.70;;;22.10;88.30;;;;;;4790666;30;19921;-83
2022/05/05 13:04:12;;;;;;;3.70;2.03;;;21.90;90.00;;;;;;4774703;30;20059;-83
2022/05/05 13:06:39;;;;;;;2.08;1.50;;;21.70;89.10;;;;;;4790529;30;20097;-83
2022/05/05 13:09:08;;;;;;;3.63;2.22;;;21.80;90.00;;;;;;4774691;30;20505;-84
2022/05/05 13:11:34;;;;;;;2.78;1.40;;;22.30;89.20;;;;;;4790303;30;20131;-83
2022/05/05 13:14:02;;;;;;;3.65;1.95;;;22.40;88.50;;;;;;4790645;30;20197;-83
2022/05/05 13:16:29;;;;;;;4.20;1.52;;;22.60;89.80;;;;;;4774422;30;20067;-83
2022/05/05 13:18:58;;;;;;;2.63;1.48;;;22.80;90.00;;;;;;4790518;30;20059;-83
2022/05/05 13:21:25;;;;;;;2.63;1.20;;;22.90;83.00;;;;;;4790531;30;20497;-83
2022/05/05 13:23:51;;;;;;;4.78;1.77;;;22.90;83.00;;;;;;4774031;30;20062;-83
2022/05/05 13:26:17;;;;;;;4.72;2.15;;;23.00;87.00;;;;;;4790218;30;20402;-83
2022/05/05 13:28:46;;;;;;;5.25;1.95;;;22.90;83.00;;;;;;4772411;30;20063;-83
2022/05/05 13:31:11;;;;;;;3.70;1.67;;;22.90;90.00;;;;;;4770944;30;20063;-84
2022/05/05 13:33:37;;;;;;;3.13;1.63;;;22.70;87.00;;;;;;4790136;30;20481;-82
2022/05/05 13:36:03;;;;;;;4.00;1.92;;;22.50;86.80;;;;;;4790150;30;20054;-84
2022/05/05 13:38:29;;;;;;;4.50;1.77;;;22.30;83.40;;;;;;4773964;30;20100;-83
2022/05/05 13:40:58;;;;;;;3.85;1.95;;;22.20;87.60;;;;;;4791054;30;20047;-86
2022/05/05 13:43:24;;;;;;;5.15;2.20;;;22.00;88.90;;;;;;4792735;30;20059;-85
2022/05/05 13:45:50;;;;;;;7.22;3.03;;;22.00;87.00;;;;;;4774517;30;20100;-85
2022/05/05 13:48:16;;;;;;;3.33;1.80;;;21.50;86.70;;;;;;4790148;30;20502;-85
2022/05/05 13:50:42;;;;;;;9.85;3.53;;;21.60;89.90;;;;;;4789380;30;20134;-84
2022/05/05 13:53:08;;;;;;;3.85;1.90;;;21.30;86.60;;;;;;4773630;30;20081;-84
2022/05/05 13:55:34;;;;;;;5.70;1.77;;;21.30;90.00;;;;;;4773732;30;20051;-84
2022/05/05 13:58:01;;;;;;;3.53;1.80;;;21.40;91.50;;;;;;4789979;30;20156;-83